New Orleans, Louisiana
Current Conditions -  °F | °C
As of 6:15 PM on Monday 22 Dec 2014 (Local Time) from KVSH Reporting Station
Overcast Overcast  
Wind Chill: 21°   Ceiling: 1000
Heat Index: 21°   Visibility: 10mi
Dew Point: 18°   Wind: 10mph
Humidity: 83%   Direction: 180°S
Pressure: 29.73"   Gusts: 17mph
Location:  29.95°N, 90.08°W
Report Text: KVSH 230015Z AUTO 18009G15KT 10SM OVC010 21/18 A2973 RMK AO1
Loading
Personal Weather Stations






























Interactive Weather Map New forecast layout! Learn more

10-Day Weather Forecast

Advertisements
Track Severe Weather on mobile